• Join FlightAware (Why Join?)
  • Login
  • US Flag 
05:28AM EST


 

Airport Tracker/Info


-or-


 

Live Flight TrackerFlight Track Log ✈ VH-OWB ✈ 23-Aug-2013 ✈ YPPD / PHE - YPPD / PHE

Flight Track Log - Related Links

Times and Time Zones

All times are in EDT time to prevent confusion due to time zone crossing. See the VH-OWB flight status page for this flight to view local times or setup timezone preferences in your user account.

Time Position Orientation Groundspeed Altitude Reporting Facility
EDT Latitude Longitude Course Direction KTS MPH feet Rate Location/Type
06:39PM -20.4764 118.7767 126° Southeast 11,000  Level Aus ATC (Calculated)
06:40PM -20.5262 118.8490 305° West 11,000  Level Aus ATC (Calculated)
06:42PM -20.5260 118.8487 305° West  Level FlightAware Approximate
06:42PM -20.5749 118.9272 304° West 11,000  Level Aus ATC (Calculated)
06:43PM -20.5258 118.8484 305° West  Level FlightAware Approximate
06:43PM -20.6245 119.0000 306° West 11,000  Level Aus ATC (Calculated)
06:44PM -20.5747 118.9269 305° West  Level FlightAware Approximate
06:45PM -20.6243 118.9997 305° West  Level FlightAware Approximate
06:46PM -20.6241 118.9994 305° West  Level FlightAware Approximate
06:47PM -20.6240 118.9992 305° West  Level FlightAware Approximate
06:48PM -20.6238 118.9989 305° West  Level FlightAware Approximate
06:49PM -20.6237 118.9987 305° West  Level FlightAware Approximate
06:50PM -20.6235 118.9984 305° West  Level FlightAware Approximate
06:50PM -20.8695 119.3797 305° West 11,000  Level Aus ATC (Calculated)
06:51PM -20.6234 118.9982 305° West  Level FlightAware Approximate
06:52PM -20.8692 119.3793 79° East  Level Estimated
06:53PM -20.8691 119.3791 305° West  Level FlightAware Approximate
06:54PM -20.8689 119.3788 305° West  Level FlightAware Approximate
06:54PM -21.0164 119.6059 305° West 11,000  Level Aus ATC (Calculated)
06:55PM -20.8688 119.3786 305° West  Level FlightAware Approximate
06:56PM -21.0162 119.6056 305° West  Level FlightAware Approximate
06:57PM -21.0161 119.6053 305° West  Level FlightAware Approximate
06:58PM -21.0159 119.6050 305° West  Level FlightAware Approximate
06:59PM -21.0157 119.6048 305° West  Level FlightAware Approximate
06:59PM -21.1628 119.8339 304° West 200  Level Aus ATC (Calculated)
07:01PM -21.1625 119.8334 305° West  Level FlightAware Approximate
07:02PM -21.1624 119.8332 305° West  Level FlightAware Approximate
07:03PM -21.1622 119.8329 305° West  Level FlightAware Approximate
07:04PM -21.1621 119.8327 259° West  Level Estimated
07:05PM -21.1619 119.8324 304° West  Level FlightAware Approximate
07:06PM -21.1618 119.8321 304° West  Level FlightAware Approximate
07:07PM -21.1616 119.8319 304° West  Level FlightAware Approximate
07:08PM -21.1614 119.8316 304° West  Level FlightAware Approximate
07:09PM -21.1613 119.8314 304° West  Level FlightAware Approximate
07:10PM -21.1611 119.8311 304° West  Level FlightAware Approximate
07:11PM -21.1609 119.8308 304° West  Level FlightAware Approximate
07:12PM -21.1608 119.8306 304° West  Level FlightAware Approximate
07:13PM -21.1606 119.8303 304° West  Level FlightAware Approximate
07:14PM -21.1605 119.8301 304° West  Level FlightAware Approximate
07:15PM -21.1603 119.8298 304° West  Level FlightAware Approximate
07:16PM -21.1602 119.8295 259° West  Level Estimated
07:17PM -21.1600 119.8293 259° West  Level Estimated
07:18PM -21.1598 119.8290 259° West  Level Estimated
07:19PM -21.1597 119.8288 259° West  Level Estimated
07:20PM -21.1595 119.8285 259° West  Level Estimated
07:21PM -21.1593 119.8282 259° West  Level Estimated
07:22PM -21.1592 119.8280 259° West  Level Estimated
07:23PM -21.1590 119.8277 259° West  Level Estimated
07:24PM -21.1589 119.8275 259° West  Level Estimated
07:25PM -21.1587 119.8272 259° West  Level Estimated
07:26PM -21.1586 119.8269 259° West  Level Estimated
07:27PM -21.1584 119.8267 259° West  Level Estimated
07:28PM -21.1582 119.8264 259° West  Level Estimated
07:29PM -21.1581 119.8262 259° West  Level Estimated
07:30PM -21.1579 119.8259 259° West  Level Estimated
07:31PM -21.1577 119.8256 259° West  Level Estimated
07:32PM -21.1576 119.8254 259° West  Level Estimated
07:33PM -21.1574 119.8251 259° West  Level Estimated
07:34PM -21.1573 119.8249 259° West  Level Estimated
07:35PM -21.1571 119.8246 259° West  Level Estimated
07:36PM -21.1569 119.8243 259° West  Level Estimated
07:37PM -21.1568 119.8241 259° West  Level Estimated
07:38PM -21.1566 119.8238 259° West  Level Estimated
07:39PM -21.1565 119.8236 259° West  Level Estimated
07:40PM -21.1563 119.8233 259° West  Level Estimated
07:41PM -21.1562 119.8230 259° West  Level Estimated
07:42PM -21.1560 119.8228 259° West  Level Estimated
07:43PM -21.1558 119.8225 259° West  Level Estimated
07:44PM -21.1557 119.8223 259° West  Level Estimated
07:45PM -21.1555 119.8220 259° West  Level Estimated
07:46PM -21.1553 119.8217 259° West  Level Estimated
07:47PM -21.1552 119.8215 259° West  Level Estimated
07:48PM -21.1550 119.8212 259° West  Level Estimated
07:49PM -21.1549 119.8210 259° West  Level Estimated
07:50PM -21.1547 119.8207 259° West  Level Estimated
07:51PM -21.1546 119.8204 259° West  Level Estimated
07:52PM -21.1544 119.8202 259° West  Level Estimated
07:53PM -21.1542 119.8199 259° West  Level Estimated
07:54PM -21.1541 119.8197 259° West  Level Estimated
07:55PM -21.1539 119.8194 259° West  Level Estimated
07:56PM -21.1537 119.8191 259° West  Level Estimated
07:57PM -21.1536 119.8189 259° West  Level Estimated
07:58PM -21.1534 119.8186 259° West  Level Estimated
07:59PM -21.1533 119.8184 259° West  Level Estimated
08:00PM -21.1531 119.8181 259° West  Level Estimated
08:01PM -21.1530 119.8178 259° West  Level Estimated
08:02PM -21.1528 119.8176 259° West  Level Estimated
08:03PM -21.1526 119.8173 259° West  Level Estimated
08:04PM -21.1525 119.8171 259° West  Level Estimated
08:05PM -21.1523 119.8168 259° West  Level Estimated
08:06PM -21.1521 119.8165 259° West  Level Estimated
08:07PM -21.1520 119.8163 259° West  Level Estimated
08:08PM -21.1518 119.8160 259° West  Level Estimated
08:09PM -21.1517 119.8158 259° West  Level Estimated
08:10PM -21.1515 119.8155 259° West  Level Estimated
08:11PM -21.1514 119.8152 259° West  Level Estimated
08:12PM -21.1512 119.8150 259° West  Level Estimated
08:13PM -21.1510 119.8147 259° West  Level Estimated
08:14PM -21.1509 119.8145 259° West  Level Estimated
08:15PM -21.1507 119.8142 259° West  Level Estimated
08:16PM -21.1506 119.8139 259° West  Level Estimated
08:17PM -21.1504 119.8137 259° West  Level Estimated
08:18PM -21.1502 119.8134 259° West  Level Estimated
08:19PM -21.1501 119.8132 259° West  Level Estimated